Denis Sullivan — WDA2917 — position and weather

sailwx.info

Track history (hours):
 
Tides and Currents Weather Stations Pressure Air Temp Water Temp Dewpoint Dewpoint Depression Visibility Wind Speed Wind Dir Waves Ship Positions

Denis Sullivan (United States)

From her homeport of Discovery World in Milwaukee, the schooner offers educational day sails and private charters for people of all ages from May to September.

Ship's website: http://www.discoveryworld.org/denisSullivan.php

Owner: Discovery World Ltd., MILWAUKEE, WI. More information available from US FCC via Universal Licensing System and Coast Guard Vessel Documentation Center.

Last reported at 2017-Jun-22 22:50 UTC. Time now 2017-Jun-29 01:51 UTC.
Position N 45°29' W 083°33'.

Length 42 m.

Type: Sailing vessel. MMSI: 338327000.

Date/timePositionNaut miles runAvg speedWind from/ knotsBaromVisibWave heightAir tempDewpointWater temp
2017-Jun-22 22:50N 45°29' W 083°33'3 7.3
2017-Jun-22 22:26N 45°31' W 083°36'3 7.5
2017-Jun-22 22:00N 45°32' W 083°40'4 7.7
2017-Jun-22 21:30N 45°34' W 083°45'10 7.9
2017-Jun-22 20:11N 45°38' W 083°59'1 7.9
2017-Jun-22 19:59N 45°39' W 084°01'4 7.8
2017-Jun-22 19:31N 45°40' W 084°06'4 7.8
2017-Jun-22 19:00N 45°42' W 084°11'4 7.3
2017-Jun-22 18:30N 45°42' W 084°16'4 7.8
2017-Jun-22 18:00N 45°41' W 084°21'4 8.0
2017-Jun-22 17:30N 45°43' W 084°27'4 7.5
2017-Jun-22 16:59N 45°45' W 084°32'4 7.4
2017-Jun-22 16:30N 45°46' W 084°36'4 7.2
2017-Jun-22 16:00N 45°48' W 084°41'4 6.9
2017-Jun-22 15:30N 45°49' W 084°45'4 7.2
2017-Jun-22 15:00N 45°49' W 084°51'7 7.2
2017-Jun-22 14:00N 45°50' W 085°01'4 7.3
2017-Jun-22 13:30N 45°50' W 085°06'3 6.5
2017-Jun-22 13:00N 45°47' W 085°09'4 7.9
2017-Jun-22 12:30N 45°44' W 085°10'4 8.3
2017-Jun-22 12:00N 45°40' W 085°13'4 8.3
2017-Jun-22 11:30N 45°36' W 085°16'4 8.3
2017-Jun-22 11:00N 45°33' W 085°19'4 8.4
2017-Jun-22 10:30N 45°29' W 085°22'4 8.4
2017-Jun-22 10:00N 45°26' W 085°26'4 7.9
2017-Jun-22 09:30N 45°23' W 085°30'4 8.3
2017-Jun-22 09:00N 45°20' W 085°34'4 8.8
2017-Jun-22 08:30N 45°17' W 085°38'4 8.8
2017-Jun-22 08:00N 45°13' W 085°42'  
Track history (hours):
 
Tides and Currents Weather Stations Pressure Air Temp Water Temp Dewpoint Dewpoint Depression Visibility Wind Speed Wind Dir Waves Ship Positions

Denis Sullivan (United States)

From her homeport of Discovery World in Milwaukee, the schooner offers educational day sails and private charters for people of all ages from May to September.

Ship's website: http://www.discoveryworld.org/denisSullivan.php

Owner: Discovery World Ltd., MILWAUKEE, WI. More information available from US FCC via Universal Licensing System and Coast Guard Vessel Documentation Center.

Last reported at 2017-Jun-22 22:50 UTC. Time now 2017-Jun-29 01:51 UTC.
Position N 45°29' W 083°33'.

Length 42 m.

Type: Sailing vessel. MMSI: 338327000.

Date/timePositionNaut miles runAvg speedWind from/ knotsBaromVisibWave heightAir tempDewpointWater temp
2017-Jun-22 22:50N 45°29' W 083°33'3 7.3
2017-Jun-22 22:26N 45°31' W 083°36'3 7.5
2017-Jun-22 22:00N 45°32' W 083°40'4 7.7
2017-Jun-22 21:30N 45°34' W 083°45'10 7.9
2017-Jun-22 20:11N 45°38' W 083°59'1 7.9
2017-Jun-22 19:59N 45°39' W 084°01'4 7.8
2017-Jun-22 19:31N 45°40' W 084°06'4 7.8
2017-Jun-22 19:00N 45°42' W 084°11'4 7.3
2017-Jun-22 18:30N 45°42' W 084°16'4 7.8
2017-Jun-22 18:00N 45°41' W 084°21'4 8.0
2017-Jun-22 17:30N 45°43' W 084°27'4 7.5
2017-Jun-22 16:59N 45°45' W 084°32'4 7.4
2017-Jun-22 16:30N 45°46' W 084°36'4 7.2
2017-Jun-22 16:00N 45°48' W 084°41'4 6.9
2017-Jun-22 15:30N 45°49' W 084°45'4 7.2
2017-Jun-22 15:00N 45°49' W 084°51'7 7.2
2017-Jun-22 14:00N 45°50' W 085°01'4 7.3
2017-Jun-22 13:30N 45°50' W 085°06'3 6.5
2017-Jun-22 13:00N 45°47' W 085°09'4 7.9
2017-Jun-22 12:30N 45°44' W 085°10'4 8.3
2017-Jun-22 12:00N 45°40' W 085°13'4 8.3
2017-Jun-22 11:30N 45°36' W 085°16'4 8.3
2017-Jun-22 11:00N 45°33' W 085°19'4 8.4
2017-Jun-22 10:30N 45°29' W 085°22'4 8.4
2017-Jun-22 10:00N 45°26' W 085°26'4 7.9
2017-Jun-22 09:30N 45°23' W 085°30'4 8.3
2017-Jun-22 09:00N 45°20' W 085°34'4 8.8
2017-Jun-22 08:30N 45°17' W 085°38'4 8.8
2017-Jun-22 08:00N 45°13' W 085°42'  

Dump ship's entire track history